Time;durP1;ratioP1;P1;durP2;ratioP2;P2;SDS_P1;SDS_P2;PMS_P1;PMS_P2;Temp;Humidity;BMP_temperature;BMP_pressure;BME280_temperature;BME280_humidity;BME280_pressure;Samples;Min_cycle;Max_cycle;Signal;HPM_P1;HPM_P2
2021/06/28 00:00:19;;;;;;;2.27;1.30;;;;;;;29.43;62.54;69216.00;5033982;28;20230;-73
2021/06/28 00:02:47;;;;;;;2.57;1.80;;;;;;;29.39;62.55;69211.13;5032403;28;20206;-73
2021/06/28 00:05:17;;;;;;;3.37;1.70;;;;;;;29.31;63.97;69202.53;5030545;28;20721;-74
2021/06/28 00:07:45;;;;;;;2.80;1.70;;;;;;;29.27;64.58;69197.84;5031866;28;20211;-73
2021/06/28 00:10:14;;;;;;;2.00;1.50;;;;;;;29.15;67.41;69184.94;5032138;28;20241;-72
2021/06/28 00:12:42;;;;;;;1.70;1.60;;;;;;;29.08;65.19;69177.03;5024615;28;20631;-73
2021/06/28 00:15:13;;;;;;;2.53;1.27;;;;;;;29.04;65.79;69172.19;5022814;28;20213;-72
2021/06/28 00:17:41;;;;;;;3.00;1.60;;;;;;;28.97;67.36;69165.09;5039158;28;20210;-73
2021/06/28 00:20:10;;;;;;;2.10;1.80;;;;;;;28.86;69.71;69153.09;5034158;28;20229;-73
2021/06/28 00:22:38;;;;;;;2.20;1.83;;;;;;;28.80;68.32;69146.13;5033448;28;20212;-72
2021/06/28 00:25:09;;;;;;;1.60;1.50;;;;;;;28.72;69.24;69137.84;5028468;28;20211;-74
2021/06/28 00:27:36;;;;;;;3.20;1.50;;;;;;;28.66;69.50;69130.81;5031866;28;20206;-73
2021/06/28 00:30:06;;;;;;;1.90;1.67;;;;;;;28.62;68.42;69126.03;5030427;28;20675;-73
2021/06/28 00:32:35;;;;;;;2.00;1.50;;;;;;;28.56;69.93;69118.84;5028625;28;20527;-73
2021/06/28 00:35:03;;;;;;;1.40;1.30;;;;;;;28.50;68.83;69112.69;5031626;28;20209;-72
2021/06/28 00:37:31;;;;;;;1.97;1.60;;;;;;;28.46;68.68;69108.25;5024842;28;20220;-73
2021/06/28 00:39:58;;;;;;;1.77;1.67;;;;;;;28.44;67.26;69105.34;5036216;28;20229;-73
2021/06/28 00:42:25;;;;;;;1.90;1.50;;;;;;;28.39;67.95;69099.75;5026217;28;20230;-73
2021/06/28 00:44:53;;;;;;;1.43;1.33;;;;;;;28.35;68.76;69094.97;5022923;28;20577;-73
2021/06/28 00:47:21;;;;;;;2.13;1.60;;;;;;;28.33;67.13;69092.97;5038246;28;20217;-73
2021/06/28 00:49:49;;;;;;;2.20;1.70;;;;;;;28.30;68.27;69090.13;5031228;28;20232;-73
2021/06/28 00:52:18;;;;;;;4.50;2.87;;;;;;;28.27;69.74;69086.72;5030838;28;20229;-73
2021/06/28 00:54:45;;;;;;;3.13;2.10;;;;;;;28.23;70.27;69081.84;5033580;28;20202;-72
2021/06/28 00:57:13;;;;;;;3.03;1.80;;;;;;;28.22;68.18;69081.13;5023407;28;20765;-73
2021/06/28 00:59:40;;;;;;;1.90;1.70;;;;;;;28.20;68.04;69079.31;5031006;28;20226;-72
2021/06/28 01:02:08;;;;;;;2.13;1.53;;;;;;;28.19;66.91;69078.16;5024682;28;20219;-72
2021/06/28 01:04:35;;;;;;;1.97;1.60;;;;;;;28.18;66.78;69076.13;5030531;28;20211;-73
2021/06/28 01:07:04;;;;;;;3.70;1.50;;;;;;;28.17;64.96;69075.72;5030005;28;20374;-73
2021/06/28 01:09:31;;;;;;;1.40;1.30;;;;;;;28.17;63.08;69075.16;5030283;28;20321;-73
2021/06/28 01:11:59;;;;;;;2.87;1.27;;;;;;;28.18;62.24;69077.34;5029621;28;20209;-72
2021/06/28 01:14:26;;;;;;;2.00;1.33;;;;;;;28.18;61.56;69077.66;5030086;28;20206;-73
2021/06/28 01:16:54;;;;;;;1.83;1.20;;;;;;;28.19;59.70;69078.53;5032384;28;20210;-73
2021/06/28 01:19:24;;;;;;;1.30;1.20;;;;;;;28.21;57.67;69081.19;5030384;28;20730;-74
2021/06/28 01:21:53;;;;;;;1.50;1.40;;;;;;;28.21;56.97;69080.44;5033568;28;20657;-72
2021/06/28 01:24:22;;;;;;;1.00;1.00;;;;;;;28.25;54.44;69085.31;5032463;28;20292;-73
2021/06/28 01:26:49;;;;;;;1.77;1.07;;;;;;;28.27;54.87;69088.19;5034302;28;20207;-72
2021/06/28 01:29:16;;;;;;;1.17;1.00;;;;;;;28.31;54.76;69093.16;5033719;28;20233;-72
2021/06/28 01:31:43;;;;;;;1.83;1.20;;;;;;;28.35;54.51;69097.59;5030366;28;20211;-72
2021/06/28 01:34:11;;;;;;;3.60;2.80;;;;;;;28.37;55.70;69099.94;5033872;28;20209;-72
2021/06/28 01:36:38;;;;;;;1.10;1.00;;;;;;;28.41;55.63;69104.16;5035796;28;20203;-71
2021/06/28 01:39:06;;;;;;;3.57;1.20;;;;;;;28.44;55.45;69108.31;5031991;28;20479;-74
2021/06/28 01:41:34;;;;;;;1.67;1.20;;;;;;;28.45;57.23;69109.63;5032034;28;20222;-73
2021/06/28 01:44:02;;;;;;;2.07;1.30;;;;;;;28.46;59.09;69110.47;5029418;28;20207;-73
2021/06/28 01:46:29;;;;;;;1.17;1.10;;;;;;;28.47;60.00;69111.41;5033195;28;20207;-73
2021/06/28 01:48:56;;;;;;;1.53;1.33;;;;;;;28.48;59.38;69112.38;5034561;28;20230;-73
2021/06/28 01:51:24;;;;;;;2.17;1.10;;;;;;;28.47;60.43;69112.25;5033465;28;20206;-72
2021/06/28 01:53:51;;;;;;;2.70;1.40;;;;;;;28.47;60.26;69111.97;5030112;28;20210;-73
2021/06/28 01:56:18;;;;;;;1.70;1.50;;;;;;;28.48;59.74;69113.13;5035339;28;20214;-72
2021/06/28 01:58:47;;;;;;;1.40;1.20;;;;;;;28.50;59.41;69115.47;5033803;28;20238;-72
2021/06/28 02:01:14;;;;;;;1.73;1.30;;;;;;;28.50;59.92;69116.22;5025464;28;20219;-73
2021/06/28 02:03:41;;;;;;;2.77;1.53;;;;;;;28.50;60.46;69115.53;5029892;28;20967;-75
2021/06/28 02:06:09;;;;;;;2.30;1.53;;;;;;;28.54;59.28;69120.81;5033239;28;20566;-74
2021/06/28 02:08:36;;;;;;;1.87;1.50;;;;;;;28.60;57.40;69127.09;5036943;28;20230;-75
2021/06/28 02:11:06;;;;;;;2.73;1.50;;;;;;;28.62;61.64;69129.41;5031953;28;20198;-75
2021/06/28 02:13:35;;;;;;;1.97;1.60;;;;;;;28.68;57.70;69136.59;5033734;28;20207;-74
2021/06/28 02:16:04;;;;;;;1.50;1.40;;;;;;;28.71;58.38;69139.28;5038548;28;20207;-74
2021/06/28 02:18:31;;;;;;;1.70;1.60;;;;;;;28.75;59.78;69143.72;5034144;28;20234;-75
2021/06/28 02:21:00;;;;;;;1.63;1.43;;;;;;;28.69;64.12;69137.38;5032314;28;20238;-74
2021/06/28 02:23:31;;;;;;;2.67;1.60;;;;;;;28.64;64.92;69131.72;5029548;28;20698;-75
2021/06/28 02:26:01;;;;;;;2.87;1.70;;;;;;;28.68;59.16;69136.63;5033084;28;20207;-74
2021/06/28 02:28:30;;;;;;;1.90;1.70;;;;;;;28.74;58.08;69143.56;5026200;28;20852;-75
2021/06/28 02:30:59;;;;;;;2.30;1.80;;;;;;;28.76;61.01;69145.69;5032308;28;20206;-72
2021/06/28 02:33:28;;;;;;;2.20;1.80;;;;;;;28.75;64.06;69144.38;5027767;28;20215;-72
2021/06/28 02:35:56;;;;;;;2.00;1.63;;;;;;;28.72;65.64;69141.03;5030698;28;20206;-75
2021/06/28 02:38:23;;;;;;;3.67;2.00;;;;;;;28.73;62.98;69142.34;5033824;28;20223;-74
2021/06/28 02:40:51;;;;;;;1.60;1.50;;;;;;;28.75;62.31;69144.66;5034087;28;20297;-73
2021/06/28 02:43:19;;;;;;;2.00;1.80;;;;;;;28.76;62.91;69145.84;5032091;28;20217;-75
2021/06/28 02:45:46;;;;;;;2.13;1.80;;;;;;;28.71;66.65;69140.72;5039974;28;20214;-74
2021/06/28 02:48:14;;;;;;;2.90;1.80;;;;;;;28.73;63.04;69142.69;5039648;28;20226;-75
2021/06/28 02:50:42;;;;;;;2.53;1.87;;;;;;;28.76;63.05;69145.44;5036030;28;20233;-74
2021/06/28 02:53:10;;;;;;;3.20;1.80;;;;;;;28.77;63.58;69147.81;5035624;28;20198;-74
2021/06/28 02:55:37;;;;;;;4.43;2.00;;;;;;;28.79;64.03;69150.16;5035082;28;20207;-75
2021/06/28 02:58:06;;;;;;;2.27;1.80;;;;;;;28.80;64.53;69150.91;5032514;28;20722;-74
2021/06/28 03:00:33;;;;;;;3.07;2.53;;;;;;;28.77;66.37;69148.06;5036730;28;20212;-74
2021/06/28 03:03:00;;;;;;;2.23;2.00;;;;;;;28.78;64.60;69149.50;5031944;28;20569;-74
2021/06/28 03:05:28;;;;;;;4.17;1.93;;;;;;;28.78;65.08;69149.78;5028499;28;20840;-74
2021/06/28 03:07:57;;;;;;;2.23;2.03;;;;;;;28.79;65.46;69151.13;5032949;28;20209;-74
2021/06/28 03:10:25;;;;;;;3.13;2.10;;;;;;;28.81;64.97;69152.78;5030522;28;20206;-72
2021/06/28 03:12:52;;;;;;;2.57;1.70;;;;;;;28.84;63.13;69155.63;5033370;28;20722;-74
2021/06/28 03:15:22;;;;;;;2.10;1.67;;;;;;;28.87;62.71;69159.22;5034304;28;20570;-74
2021/06/28 03:17:49;;;;;;;5.53;2.30;;;;;;;28.89;63.05;69161.38;5034384;28;20198;-75
2021/06/28 03:20:17;;;;;;;3.23;2.10;;;;;;;28.92;62.07;69165.41;5023892;28;20209;-75
2021/06/28 03:22:46;;;;;;;2.27;2.07;;;;;;;28.91;64.34;69164.09;5031642;28;20231;-74
2021/06/28 03:25:19;;;;;;;3.13;2.40;;;;;;;28.94;62.02;69167.47;5030237;28;20202;-75
2021/06/28 03:27:47;;;;;;;2.63;1.83;;;;;;;28.93;65.56;69166.50;5035690;28;20269;-76
2021/06/28 03:30:15;;;;;;;4.37;2.00;;;;;;;28.95;63.64;69168.50;5036534;28;20214;-74
2021/06/28 03:32:43;;;;;;;2.87;2.20;;;;;;;28.93;65.55;69167.22;5033139;28;20202;-74
2021/06/28 03:35:11;;;;;;;2.97;1.87;;;;;;;28.93;65.83;69167.06;5038164;28;20207;-75
2021/06/28 03:37:39;;;;;;;6.67;2.43;;;;;;;28.94;65.45;69167.81;5032996;28;20675;-75
2021/06/28 03:40:09;;;;;;;3.43;2.20;;;;;;;28.81;76.80;69153.31;5031159;28;20225;-75
2021/06/28 03:42:38;;;;;;;3.50;1.90;;;;;;;28.77;69.31;69148.88;5027574;28;20227;-75
2021/06/28 03:45:08;;;;;;;3.50;2.00;;;;;;;28.78;64.81;69149.63;5026347;28;21037;-74
2021/06/28 03:47:35;;;;;;;4.17;2.30;;;;;;;28.69;73.56;69140.28;5036825;28;20553;-74
2021/06/28 03:50:03;;;;;;;3.60;2.07;;;;;;;28.63;71.96;69133.56;5029465;28;20245;-74
2021/06/28 03:52:30;;;;;;;3.43;1.90;;;;;;;28.67;65.49;69137.75;5032407;28;20230;-73
2021/06/28 03:54:57;;;;;;;4.17;1.77;;;;;;;28.68;65.73;69139.19;5031444;28;20265;-74
2021/06/28 03:57:24;;;;;;;2.33;2.13;;;;;;;28.72;64.15;69143.50;5032117;28;20566;-73
2021/06/28 03:59:53;;;;;;;2.87;2.00;;;;;;;28.75;63.89;69147.13;5026235;28;20225;-73
2021/06/28 04:02:20;;;;;;;2.50;2.10;;;;;;;28.76;65.86;69148.16;5032133;28;20241;-73
2021/06/28 04:04:49;;;;;;;3.00;2.20;;;;;;;28.79;64.26;69152.03;5031348;28;20206;-74
2021/06/28 04:07:16;;;;;;;3.80;2.07;;;;;;;28.84;63.11;69157.22;5029071;28;20203;-73
2021/06/28 04:09:44;;;;;;;2.97;1.90;;;;;;;28.88;63.09;69161.78;5031214;28;20710;-73
2021/06/28 04:12:12;;;;;;;3.93;2.00;;;;;;;28.91;63.26;69165.63;5031900;28;20619;-74
2021/06/28 04:14:41;;;;;;;3.50;2.20;;;;;;;28.92;64.64;69166.47;5030893;28;20209;-74
2021/06/28 04:17:10;;;;;;;2.83;1.80;;;;;;;28.95;63.17;69169.19;5031238;28;20220;-73
2021/06/28 04:19:37;;;;;;;3.30;1.90;;;;;;;28.97;63.75;69171.88;5023772;28;20318;-72
2021/06/28 04:22:05;;;;;;;4.10;1.90;;;;;;;29.00;64.51;69174.63;5023658;28;20226;-73
2021/06/28 04:24:32;;;;;;;2.37;1.90;;;;;;;29.01;65.60;69176.81;5031133;28;20199;-74
2021/06/28 04:26:59;;;;;;;2.63;1.73;;;;;;;28.99;68.65;69173.66;5031604;28;20214;-73
2021/06/28 04:29:27;;;;;;;3.43;1.93;;;;;;;28.89;76.29;69163.22;5020061;28;20230;-74
2021/06/28 04:31:54;;;;;;;2.30;2.10;;;;;;;28.83;73.54;69156.19;5028568;28;20202;-75
2021/06/28 04:34:23;;;;;;;4.17;2.10;;;;;;;28.81;69.16;69154.03;5032184;28;21930;-75
2021/06/28 04:36:50;;;;;;;3.43;2.30;;;;;;;28.81;68.44;69154.78;5032293;28;20211;-75
2021/06/28 04:39:18;;;;;;;3.03;2.40;;;;;;;28.82;68.25;69155.09;5031602;28;20236;-75
2021/06/28 04:41:45;;;;;;;4.23;2.20;;;;;;;28.84;66.41;69157.97;5031930;28;20238;-74
2021/06/28 04:44:12;;;;;;;3.03;2.00;;;;;;;28.88;65.40;69163.19;5030196;28;20213;-74
2021/06/28 04:46:40;;;;;;;4.27;2.17;;;;;;;28.93;63.81;69168.38;5030298;28;20221;-74
2021/06/28 04:49:07;;;;;;;3.07;2.07;;;;;;;28.94;65.17;69170.09;5029734;28;20233;-73
2021/06/28 04:51:36;;;;;;;2.80;2.03;;;;;;;28.98;64.01;69173.88;5025587;28;20209;-72
2021/06/28 04:54:03;;;;;;;2.87;2.37;;;;;;;29.01;64.47;69178.69;5030875;28;20618;-73
2021/06/28 04:56:31;;;;;;;12.67;2.57;;;;;;;29.05;63.58;69182.25;5038708;28;20210;-73
2021/06/28 04:58:58;;;;;;;4.40;2.43;;;;;;;29.08;63.47;69185.88;5033749;28;20230;-73
2021/06/28 05:01:25;;;;;;;3.30;2.47;;;;;;;29.07;64.81;69184.84;5032148;28;20210;-72
2021/06/28 05:03:52;;;;;;;4.23;2.00;;;;;;;29.07;65.42;69185.00;5034749;28;20207;-73
2021/06/28 05:06:20;;;;;;;4.30;2.50;;;;;;;29.08;65.28;69185.84;5040822;28;20213;-73
2021/06/28 05:08:48;;;;;;;3.73;2.33;;;;;;;29.10;62.87;69189.22;5033424;28;20233;-73
2021/06/28 05:11:15;;;;;;;5.00;2.00;;;;;;;29.14;61.40;69193.53;5038176;28;20199;-73
2021/06/28 05:13:43;;;;;;;3.70;2.07;;;;;;;29.21;59.23;69200.66;5035002;28;20203;-74
2021/06/28 05:16:10;;;;;;;2.17;1.97;;;;;;;29.27;59.00;69207.88;5027524;28;20655;-74
2021/06/28 05:18:38;;;;;;;3.80;1.93;;;;;;;29.31;59.66;69212.94;5034804;28;20223;-74
2021/06/28 05:21:05;;;;;;;2.57;1.80;;;;;;;29.36;57.09;69217.88;5034887;28;20277;-73
2021/06/28 05:23:32;;;;;;;4.33;1.70;;;;;;;29.42;57.10;69225.09;5034213;28;20245;-73
2021/06/28 05:26:02;;;;;;;2.60;1.87;;;;;;;29.46;58.01;69230.00;5035277;28;20198;-74
2021/06/28 05:28:29;;;;;;;2.17;1.97;;;;;;;29.45;62.36;69228.13;5031766;28;20242;-76
2021/06/28 05:30:57;;;;;;;2.63;2.00;;;;;;;29.48;58.80;69231.69;5033816;28;20218;-72
2021/06/28 05:33:24;;;;;;;3.00;1.90;;;;;;;29.51;57.97;69236.25;5036873;28;20631;-74
2021/06/28 05:35:52;;;;;;;2.20;2.00;;;;;;;29.56;57.64;69241.00;5035425;28;20207;-72
2021/06/28 05:38:19;;;;;;;1.77;1.67;;;;;;;29.58;59.20;69243.91;5034862;28;20312;-71
2021/06/28 05:40:46;;;;;;;4.03;2.00;;;;;;;29.56;62.25;69242.31;5034236;28;20208;-71
2021/06/28 05:43:15;;;;;;;2.03;1.70;;;;;;;29.59;59.23;69245.47;5035331;28;20714;-77
2021/06/28 05:45:42;;;;;;;2.17;1.87;;;;;;;29.66;56.55;69254.16;5031999;28;20691;-74
2021/06/28 05:48:09;;;;;;;3.43;1.97;;;;;;;29.77;53.66;69266.66;5040173;28;20452;-76
2021/06/28 05:50:37;;;;;;;2.30;1.77;;;;;;;29.91;51.81;69282.16;5038968;28;20453;-75
2021/06/28 05:53:06;;;;;;;3.80;1.80;;;;;;;30.02;51.81;69295.53;5037737;28;20197;-74
2021/06/28 05:55:33;;;;;;;4.93;1.67;;;;;;;30.14;51.27;69308.00;5034687;28;20285;-74
2021/06/28 05:58:01;;;;;;;1.97;1.70;;;;;;;30.16;56.22;69310.31;5029733;28;20218;-72
2021/06/28 06:00:29;;;;;;;3.33;2.37;;;;;;;30.18;56.00;69313.06;5033169;28;20226;-74
2021/06/28 06:03:00;;;;;;;2.03;1.80;;;;;;;30.28;51.49;69325.00;5033121;28;20249;-72
2021/06/28 06:05:27;;;;;;;2.08;1.63;;;;;;;30.39;51.03;69337.50;5035086;28;20268;-75
2021/06/28 06:07:55;;;;;;;3.03;1.90;;;;;;;30.45;54.72;69343.94;5038272;28;20221;-74
2021/06/28 06:10:22;;;;;;;3.65;1.70;;;;;;;30.52;52.33;69352.31;5034768;28;20206;-75
2021/06/28 06:12:50;;;;;;;3.05;1.95;;;;;;;30.52;56.71;69351.44;5034579;28;20234;-73
2021/06/28 06:15:17;;;;;;;3.85;1.98;;;;;;;30.47;59.37;69346.59;5034394;28;20217;-75
2021/06/28 06:17:46;;;;;;;2.58;2.00;;;;;;;30.45;58.31;69343.84;5052800;28;20217;-75
2021/06/28 06:20:14;;;;;;;4.53;2.10;;;;;;;30.42;59.55;69340.25;5035041;28;20203;-73
2021/06/28 06:22:42;;;;;;;3.05;1.77;;;;;;;30.35;60.76;69333.22;5033928;28;20222;-72
2021/06/28 06:25:10;;;;;;;2.50;1.88;;;;;;;30.30;62.20;69327.06;5037080;28;20217;-78
2021/06/28 06:27:37;;;;;;;5.35;1.77;;;;;;;30.32;57.46;69329.66;5036068;28;20213;-73
2021/06/28 06:30:06;;;;;;;4.80;2.00;;;;;;;30.37;53.96;69334.44;5033442;28;20240;-77
2021/06/28 06:32:34;;;;;;;1.98;1.70;;;;;;;30.38;55.29;69335.13;5035508;28;20210;-75
2021/06/28 06:35:03;;;;;;;2.78;1.80;;;;;;;30.38;56.67;69335.59;5034278;28;20206;-76
2021/06/28 06:37:31;;;;;;;2.20;1.88;;;;;;;30.38;57.33;69335.59;5028551;28;20568;-72
2021/06/28 06:39:59;;;;;;;5.03;2.10;;;;;;;30.44;52.69;69343.25;5032454;28;20219;-71
2021/06/28 06:42:26;;;;;;;2.13;1.80;;;;;;;30.50;52.38;69349.16;5029902;28;20603;-72
2021/06/28 06:44:54;;;;;;;2.78;2.00;;;;;;;30.53;55.03;69352.59;5034997;28;20218;-71
2021/06/28 06:47:21;;;;;;;2.33;1.70;;;;;;;30.50;55.90;69348.81;5032831;28;20203;-71
2021/06/28 06:49:49;;;;;;;2.63;1.70;;;;;;;30.51;53.49;69349.97;5038969;28;20240;-71
2021/06/28 06:52:18;;;;;;;2.03;1.70;;;;;;;30.43;59.23;69341.03;5031067;28;20213;-72
2021/06/28 06:54:45;;;;;;;3.43;1.90;;;;;;;30.45;54.03;69344.06;5032679;28;20268;-71
2021/06/28 06:57:12;;;;;;;2.17;1.70;;;;;;;30.55;50.22;69355.44;5033131;28;20209;-71
2021/06/28 06:59:40;;;;;;;3.20;1.67;;;;;;;30.54;54.06;69353.69;5029367;28;20235;-71
2021/06/28 07:02:07;;;;;;;2.67;1.67;;;;;;;30.60;48.40;69361.34;5030337;28;20277;-71
2021/06/28 07:04:35;;;;;;;2.13;1.92;;;;;;;30.62;52.37;69363.09;5032909;28;20241;-71
2021/06/28 07:07:03;;;;;;;1.45;1.35;;;;;;;30.57;55.82;69356.69;5031633;28;20210;-71
2021/06/28 07:09:31;;;;;;;1.55;1.45;;;;;;;30.66;48.16;69367.69;5025455;28;20230;-74
2021/06/28 07:11:59;;;;;;;2.65;1.60;;;;;;;30.72;49.42;69373.66;5030185;28;20305;-72
2021/06/28 07:14:26;;;;;;;2.85;2.05;;;;;;;30.77;50.08;69379.72;5029337;28;20211;-72
2021/06/28 07:16:54;;;;;;;4.40;1.63;;;;;;;30.96;41.25;69401.56;5031654;28;20198;-72
2021/06/28 07:19:21;;;;;;;2.28;1.60;;;;;;;31.16;40.42;69424.91;5031005;28;20237;-71
2021/06/28 07:21:49;;;;;;;3.50;1.63;;;;;;;31.30;43.66;69440.91;5030332;28;20210;-71
2021/06/28 07:24:16;;;;;;;3.45;1.90;;;;;;;31.34;46.30;69444.47;5030137;28;20241;-72
2021/06/28 07:26:45;;;;;;;3.35;1.88;;;;;;;31.27;51.00;69437.00;5030729;28;20209;-71
2021/06/28 07:29:13;;;;;;;2.63;1.80;;;;;;;31.35;44.88;69446.84;5030767;28;20235;-71
2021/06/28 07:31:41;;;;;;;4.32;2.00;;;;;;;31.33;50.50;69444.72;5030045;28;20583;-71
2021/06/28 07:34:08;;;;;;;3.38;1.95;;;;;;;31.31;51.50;69442.41;5031758;28;20199;-71
2021/06/28 07:36:36;;;;;;;2.15;1.65;;;;;;;31.33;49.23;69444.91;5032129;28;20199;-75
2021/06/28 07:39:04;;;;;;;2.50;2.03;;;;;;;31.30;51.57;69441.34;5032201;28;20223;-71
2021/06/28 07:41:32;;;;;;;5.72;2.00;;;;;;;31.38;47.13;69450.59;5028993;28;20213;-71
2021/06/28 07:44:02;;;;;;;2.83;1.98;;;;;;;31.44;46.48;69457.22;5028303;28;20235;-71
2021/06/28 07:46:30;;;;;;;2.58;1.83;;;;;;;31.51;45.13;69465.56;5031110;28;20215;-71
2021/06/28 07:48:57;;;;;;;4.97;1.80;;;;;;;31.61;42.00;69476.59;5027944;28;20226;-71
2021/06/28 07:51:24;;;;;;;4.43;2.00;;;;;;;31.76;38.71;69493.47;5030941;28;20199;-73
2021/06/28 07:53:52;;;;;;;2.05;1.80;;;;;;;31.82;41.71;69500.34;5029846;28;20382;-71
2021/06/28 07:56:19;;;;;;;2.90;1.80;;;;;;;31.91;41.30;69510.84;5031437;28;20210;-71
2021/06/28 07:58:48;;;;;;;3.78;2.10;;;;;;;31.98;40.46;69518.97;5031606;28;20222;-72
2021/06/28 08:01:17;;;;;;;3.40;1.60;;;;;;;32.03;39.90;69524.44;5031196;28;20213;-70
2021/06/28 08:03:46;;;;;;;5.25;1.90;;;;;;;32.08;40.02;69530.50;5030040;28;20327;-70
2021/06/28 08:06:14;;;;;;;5.72;1.70;;;;;;;32.20;38.54;69544.34;5030160;28;20202;-72
2021/06/28 08:08:42;;;;;;;2.10;1.60;;;;;;;32.31;36.51;69557.06;5031434;28;20690;-72
2021/06/28 08:11:09;;;;;;;3.15;1.80;;;;;;;32.43;35.27;69570.63;5031278;28;20202;-71
2021/06/28 08:13:39;;;;;;;1.95;1.55;;;;;;;32.49;38.13;69578.41;5028573;28;20195;-72
2021/06/28 08:16:06;;;;;;;2.22;1.63;;;;;;;32.58;36.54;69588.34;5031204;28;20202;-71
2021/06/28 08:18:35;;;;;;;3.72;1.95;;;;;;;32.58;37.80;69588.16;5025636;28;20229;-70
2021/06/28 08:21:02;;;;;;;4.13;1.60;;;;;;;32.58;38.55;69588.47;5020561;28;20203;-70
2021/06/28 08:23:30;;;;;;;3.03;1.60;;;;;;;32.66;35.50;69597.72;5025262;28;20232;-69
2021/06/28 08:25:57;;;;;;;2.78;1.80;;;;;;;32.78;34.84;69610.88;5013918;28;20209;-71
2021/06/28 08:28:24;;;;;;;1.65;1.17;;;;;;;32.91;32.78;69625.03;5027757;28;20952;-70
2021/06/28 08:30:52;;;;;;;4.18;1.55;;;;;;;33.09;32.09;69645.78;5027538;28;20213;-70
2021/06/28 08:33:19;;;;;;;1.40;1.30;;;;;;;33.23;31.47;69662.00;5030286;28;20211;-70
2021/06/28 08:35:48;;;;;;;4.43;1.90;;;;;;;33.35;32.56;69674.66;5026950;28;20218;-71
2021/06/28 08:38:15;;;;;;;1.90;1.42;;;;;;;33.57;29.66;69699.72;5028041;28;20222;-70
2021/06/28 08:40:43;;;;;;;1.88;1.60;;;;;;;33.49;37.13;69690.97;5026789;28;20206;-70
2021/06/28 08:43:11;;;;;;;2.70;1.45;;;;;;;33.40;38.79;69680.09;5028460;28;20226;-71
2021/06/28 08:45:39;;;;;;;3.25;1.92;;;;;;;33.34;38.96;69674.09;5027865;28;20214;-70
2021/06/28 08:48:08;;;;;;;3.17;1.70;;;;;;;33.44;33.91;69685.06;5030581;28;20198;-70
2021/06/28 08:50:37;;;;;;;2.67;1.70;;;;;;;33.37;38.71;69678.19;5023748;28;20214;-70
2021/06/28 08:53:07;;;;;;;2.00;1.60;;;;;;;33.35;36.20;69675.19;5030382;28;20199;-69
2021/06/28 08:55:35;;;;;;;4.43;1.33;;;;;;;33.26;38.58;69665.97;5029688;28;20300;-69
2021/06/28 08:58:04;;;;;;;3.28;1.42;;;;;;;33.36;33.60;69677.09;5027634;28;20222;-71
2021/06/28 09:00:31;;;;;;;2.13;1.52;;;;;;;33.41;34.66;69682.88;5023294;28;20214;-69
2021/06/28 09:03:00;;;;;;;4.30;1.50;;;;;;;33.47;33.78;69690.25;5030027;28;20579;-71
2021/06/28 09:05:28;;;;;;;2.08;1.63;;;;;;;33.64;30.23;69708.47;5027782;28;20866;-70
2021/06/28 09:08:11;;;;;;;2.67;1.65;;;;;;;33.88;27.93;69735.69;5022830;28;20566;-70
2021/06/28 09:10:40;;;;;;;2.55;1.40;;;;;;;34.01;29.04;69750.25;5030277;28;20206;-70
2021/06/28 09:13:08;;;;;;;2.50;1.13;;;;;;;34.25;25.94;69777.47;5029471;28;20205;-71
2021/06/28 09:15:37;;;;;;;1.48;1.33;;;;;;;34.31;28.55;69784.56;5026283;28;20663;-71
2021/06/28 09:18:22;;;;;;;2.13;1.73;;;;;;;34.47;27.51;69803.78;5028941;28;20210;-70
2021/06/28 09:20:50;;;;;;;1.88;1.52;;;;;;;34.61;28.50;69818.59;5027498;28;20207;-73
2021/06/28 09:23:27;;;;;;;2.38;1.45;;;;;;;34.70;30.21;69829.22;5030050;28;20592;-71
2021/06/28 09:25:56;;;;;;;3.47;1.80;;;;;;;34.72;30.26;69831.66;5026228;28;20205;-70
2021/06/28 09:28:39;;;;;;;5.43;1.65;;;;;;;34.73;31.79;69831.78;5027263;28;20273;-70
2021/06/28 09:31:07;;;;;;;1.92;1.73;;;;;;;34.87;28.71;69847.94;5022721;28;20551;-72
2021/06/28 09:33:34;;;;;;;2.20;1.75;;;;;;;35.11;26.37;69875.44;5027829;28;20570;-70
2021/06/28 09:36:03;;;;;;;2.70;1.60;;;;;;;35.29;28.01;69895.78;5027178;28;20202;-71
2021/06/28 09:38:37;;;;;;;2.30;1.80;;;;;;;35.49;25.98;69918.41;5029785;28;20233;-69
2021/06/28 09:41:21;;;;;;;2.08;1.88;;;;;;;35.73;25.22;69945.13;5030224;28;20207;-71
2021/06/28 09:43:49;;;;;;;2.15;1.60;;;;;;;35.73;28.76;69944.97;5031423;28;20223;-73
2021/06/28 09:46:21;;;;;;;3.45;1.73;;;;;;;35.85;27.43;69958.34;5031282;28;20203;-72
2021/06/28 09:48:49;;;;;;;2.17;1.88;;;;;;;35.78;30.50;69950.69;5038892;28;21833;-72
2021/06/28 09:51:25;;;;;;;2.33;1.60;;;;;;;35.80;30.17;69952.72;5028937;28;20210;-70
2021/06/28 09:53:55;;;;;;;4.53;1.63;;;;;;;35.96;26.52;69971.41;5030516;28;20655;-74
2021/06/28 09:56:34;;;;;;;4.78;1.80;;;;;;;36.11;26.13;69988.34;5027026;28;20242;-74
2021/06/28 09:59:20;;;;;;;2.50;1.52;;;;;;;36.17;28.63;69994.84;5033520;28;20222;-72
2021/06/28 10:01:48;;;;;;;3.45;1.58;;;;;;;36.17;29.85;69995.06;5034145;28;20229;-72
2021/06/28 10:04:39;;;;;;;2.55;1.88;;;;;;;36.23;29.04;70001.59;5033326;28;20254;-71
2021/06/28 10:07:25;;;;;;;3.47;1.63;;;;;;;36.24;28.33;70003.31;5026684;28;20206;-71
2021/06/28 10:10:14;;;;;;;2.25;1.45;;;;;;;36.35;26.68;70015.59;5034067;28;20230;-73
2021/06/28 10:12:43;;;;;;;3.35;1.80;;;;;;;36.46;27.03;70027.84;5033973;28;20219;-76
2021/06/28 10:15:13;;;;;;;3.65;1.70;;;;;;;36.52;27.02;70034.34;5034845;28;20208;-75
2021/06/28 10:17:42;;;;;;;2.80;1.95;;;;;;;36.46;29.71;70027.41;5034379;28;20203;-73
2021/06/28 10:20:13;;;;;;;3.40;1.80;;;;;;;36.45;27.78;70026.78;5033249;28;20229;-73
2021/06/28 10:22:41;;;;;;;1.95;1.73;;;;;;;36.51;27.57;70032.69;5034059;28;20580;-73
2021/06/28 10:25:10;;;;;;;1.95;1.52;;;;;;;36.55;26.69;70037.06;5033822;28;20221;-73
2021/06/28 10:27:39;;;;;;;2.00;1.70;;;;;;;36.56;27.25;70037.94;5033513;28;20225;-74
2021/06/28 10:30:10;;;;;;;3.60;2.03;;;;;;;36.59;26.99;70041.81;5025562;28;20312;-74
2021/06/28 10:32:38;;;;;;;2.00;1.60;;;;;;;36.66;25.78;70049.31;5026013;28;20202;-73
2021/06/28 10:35:09;;;;;;;2.50;1.50;;;;;;;36.76;25.01;70060.88;5033381;28;20237;-74
2021/06/28 10:37:38;;;;;;;2.00;1.40;;;;;;;36.87;24.66;70073.72;5033952;28;20221;-74
2021/06/28 10:40:09;;;;;;;2.28;1.58;;;;;;;36.97;25.07;70085.25;5032361;28;20230;-74
2021/06/28 10:42:39;;;;;;;2.05;1.63;;;;;;;37.08;24.77;70097.25;5033454;28;20203;-74
2021/06/28 10:45:10;;;;;;;1.83;1.52;;;;;;;37.14;25.49;70103.75;5024714;28;20218;-74
2021/06/28 10:47:37;;;;;;;1.85;1.60;;;;;;;37.17;26.39;70107.50;5033803;28;20214;-74
2021/06/28 10:50:07;;;;;;;3.17;1.80;;;;;;;37.19;25.58;70110.41;5031075;28;20968;-78
2021/06/28 10:52:49;;;;;;;3.20;1.40;;;;;;;37.30;24.65;70123.34;5029000;28;20214;-77
2021/06/28 10:55:41;;;;;;;2.22;1.80;;;;;;;37.30;27.23;70122.34;5023789;28;20297;-81
2021/06/28 10:58:32;;;;;;;3.35;1.42;;;;;;;37.27;27.44;70118.41;5035353;28;20191;-81
2021/06/28 11:01:14;;;;;;;2.38;1.60;;;;;;;37.36;26.20;70128.53;5033343;28;20214;-73
2021/06/28 11:03:42;;;;;;;1.48;1.38;;;;;;;37.33;27.54;70125.41;5030288;28;20324;-74
2021/06/28 11:06:25;;;;;;;1.40;1.30;;;;;;;37.32;27.52;70124.25;5033923;28;20205;-73
2021/06/28 11:09:00;;;;;;;1.60;1.40;;;;;;;37.23;29.10;70113.53;5034751;28;20284;-73
2021/06/28 11:11:58;;;;;;;2.45;1.60;;;;;;;37.36;24.47;70127.63;5026029;28;20297;-74
2021/06/28 11:14:40;;;;;;;2.42;1.40;;;;;;;37.40;26.10;70132.56;5027444;28;20206;-74
2021/06/28 11:17:09;;;;;;;3.72;1.45;;;;;;;37.46;26.13;70139.19;5031256;28;20209;-74
2021/06/28 11:19:55;;;;;;;2.05;1.48;;;;;;;37.51;25.95;70145.59;5031875;28;20699;-74
2021/06/28 11:22:43;;;;;;;1.60;1.50;;;;;;;37.55;25.85;70149.00;5030417;28;20321;-75
2021/06/28 11:25:18;;;;;;;3.63;1.40;;;;;;;37.60;25.50;70154.47;5031367;28;20218;-74
2021/06/28 11:27:48;;;;;;;1.90;1.70;;;;;;;37.64;25.54;70159.50;5032151;28;20194;-74
2021/06/28 11:30:22;;;;;;;2.00;1.60;;;;;;;37.80;24.49;70177.69;5030999;28;20222;-74
2021/06/28 11:33:01;;;;;;;2.83;1.80;;;;;;;37.84;24.97;70182.25;5032493;28;20292;-74
2021/06/28 11:35:36;;;;;;;1.73;1.55;;;;;;;37.98;23.67;70197.81;5032709;28;20207;-73
2021/06/28 11:38:18;;;;;;;8.43;2.10;;;;;;;38.07;24.62;70207.19;5025781;28;20229;-73
2021/06/28 11:40:51;;;;;;;1.52;1.42;;;;;;;38.13;25.44;70213.94;5032723;28;20549;-74
2021/06/28 11:43:33;;;;;;;2.25;1.58;;;;;;;38.13;26.39;70213.81;5033376;28;20215;-74